sensor_id;sensor_type;location;lat;lon;timestamp;P1;durP1;ratioP1;P2;durP2;ratioP2
5823;SDS011;2938;52.254;12.988;2023-07-09T00:00:51;7.35;;;4.88;;
5823;SDS011;2938;52.254;12.988;2023-07-09T00:03:17;9.63;;;5.93;;
5823;SDS011;2938;52.254;12.988;2023-07-09T00:05:43;5.30;;;4.72;;
5823;SDS011;2938;52.254;12.988;2023-07-09T00:08:15;6.93;;;4.43;;
5823;SDS011;2938;52.254;12.988;2023-07-09T00:10:49;6.88;;;5.22;;
5823;SDS011;2938;52.254;12.988;2023-07-09T00:13:18;6.25;;;4.50;;
5823;SDS011;2938;52.254;12.988;2023-07-09T00:15:43;6.72;;;4.95;;
5823;SDS011;2938;52.254;12.988;2023-07-09T00:18:09;5.77;;;4.80;;
5823;SDS011;2938;52.254;12.988;2023-07-09T00:20:34;6.03;;;4.93;;
5823;SDS011;2938;52.254;12.988;2023-07-09T00:23:00;7.07;;;5.28;;
5823;SDS011;2938;52.254;12.988;2023-07-09T00:25:25;5.25;;;4.63;;
5823;SDS011;2938;52.254;12.988;2023-07-09T00:27:50;8.60;;;5.65;;
5823;SDS011;2938;52.254;12.988;2023-07-09T00:30:16;7.78;;;4.88;;
5823;SDS011;2938;52.254;12.988;2023-07-09T00:32:44;8.05;;;5.68;;
5823;SDS011;2938;52.254;12.988;2023-07-09T00:35:10;11.50;;;5.82;;
5823;SDS011;2938;52.254;12.988;2023-07-09T00:37:37;7.93;;;5.07;;
5823;SDS011;2938;52.254;12.988;2023-07-09T00:40:02;8.50;;;4.82;;
5823;SDS011;2938;52.254;12.988;2023-07-09T00:42:28;7.05;;;5.53;;
5823;SDS011;2938;52.254;12.988;2023-07-09T00:44:54;6.57;;;5.32;;
5823;SDS011;2938;52.254;12.988;2023-07-09T00:47:21;6.93;;;4.72;;
5823;SDS011;2938;52.254;12.988;2023-07-09T00:52:24;7.97;;;5.07;;
5823;SDS011;2938;52.254;12.988;2023-07-09T00:55:00;8.65;;;4.55;;
5823;SDS011;2938;52.254;12.988;2023-07-09T00:57:30;5.63;;;4.82;;
5823;SDS011;2938;52.254;12.988;2023-07-09T00:59:56;5.15;;;4.22;;
5823;SDS011;2938;52.254;12.988;2023-07-09T01:02:24;7.65;;;5.47;;
5823;SDS011;2938;52.254;12.988;2023-07-09T01:04:51;9.85;;;4.88;;
5823;SDS011;2938;52.254;12.988;2023-07-09T01:07:21;6.30;;;5.40;;
5823;SDS011;2938;52.254;12.988;2023-07-09T01:09:47;9.77;;;5.93;;
5823;SDS011;2938;52.254;12.988;2023-07-09T01:12:13;6.20;;;5.38;;
5823;SDS011;2938;52.254;12.988;2023-07-09T01:14:39;6.03;;;5.07;;
5823;SDS011;2938;52.254;12.988;2023-07-09T01:17:05;5.53;;;5.03;;
5823;SDS011;2938;52.254;12.988;2023-07-09T01:19:36;5.22;;;4.47;;
5823;SDS011;2938;52.254;12.988;2023-07-09T01:22:08;8.35;;;5.80;;
5823;SDS011;2938;52.254;12.988;2023-07-09T01:24:50;7.07;;;5.97;;
5823;SDS011;2938;52.254;12.988;2023-07-09T01:27:16;5.80;;;5.20;;
5823;SDS011;2938;52.254;12.988;2023-07-09T01:29:43;10.45;;;5.15;;
5823;SDS011;2938;52.254;12.988;2023-07-09T01:32:09;8.77;;;5.93;;
5823;SDS011;2938;52.254;12.988;2023-07-09T01:34:35;6.50;;;5.82;;
5823;SDS011;2938;52.254;12.988;2023-07-09T01:37:00;11.70;;;5.63;;
5823;SDS011;2938;52.254;12.988;2023-07-09T01:39:26;6.13;;;5.55;;
5823;SDS011;2938;52.254;12.988;2023-07-09T01:41:54;7.93;;;5.95;;
5823;SDS011;2938;52.254;12.988;2023-07-09T01:44:20;6.82;;;5.80;;
5823;SDS011;2938;52.254;12.988;2023-07-09T01:46:45;8.98;;;5.45;;
5823;SDS011;2938;52.254;12.988;2023-07-09T01:49:11;12.38;;;6.10;;
5823;SDS011;2938;52.254;12.988;2023-07-09T01:51:36;7.57;;;5.47;;
5823;SDS011;2938;52.254;12.988;2023-07-09T01:54:02;5.95;;;5.32;;
5823;SDS011;2938;52.254;12.988;2023-07-09T01:56:28;7.40;;;5.20;;
5823;SDS011;2938;52.254;12.988;2023-07-09T01:58:54;10.40;;;6.75;;
5823;SDS011;2938;52.254;12.988;2023-07-09T02:01:29;9.30;;;6.45;;
5823;SDS011;2938;52.254;12.988;2023-07-09T02:03:55;7.20;;;6.43;;
5823;SDS011;2938;52.254;12.988;2023-07-09T02:06:20;6.53;;;5.78;;
5823;SDS011;2938;52.254;12.988;2023-07-09T02:08:49;9.27;;;5.60;;
5823;SDS011;2938;52.254;12.988;2023-07-09T02:11:14;9.10;;;5.00;;
5823;SDS011;2938;52.254;12.988;2023-07-09T02:13:39;8.05;;;6.78;;
5823;SDS011;2938;52.254;12.988;2023-07-09T02:16:05;9.32;;;6.22;;
5823;SDS011;2938;52.254;12.988;2023-07-09T02:18:30;10.85;;;6.22;;
5823;SDS011;2938;52.254;12.988;2023-07-09T02:20:55;8.65;;;6.35;;
5823;SDS011;2938;52.254;12.988;2023-07-09T02:23:25;6.78;;;6.18;;
5823;SDS011;2938;52.254;12.988;2023-07-09T02:25:52;8.98;;;6.32;;
5823;SDS011;2938;52.254;12.988;2023-07-09T02:28:17;13.27;;;6.60;;
5823;SDS011;2938;52.254;12.988;2023-07-09T02:30:43;9.82;;;6.97;;
5823;SDS011;2938;52.254;12.988;2023-07-09T02:33:08;7.57;;;5.45;;
5823;SDS011;2938;52.254;12.988;2023-07-09T02:35:34;14.73;;;6.38;;
5823;SDS011;2938;52.254;12.988;2023-07-09T02:38:00;10.98;;;6.35;;
5823;SDS011;2938;52.254;12.988;2023-07-09T02:40:26;7.63;;;6.03;;
5823;SDS011;2938;52.254;12.988;2023-07-09T02:42:51;8.30;;;6.22;;
5823;SDS011;2938;52.254;12.988;2023-07-09T02:45:17;9.45;;;6.70;;
5823;SDS011;2938;52.254;12.988;2023-07-09T02:47:42;6.90;;;6.18;;
5823;SDS011;2938;52.254;12.988;2023-07-09T02:50:07;8.98;;;5.68;;
5823;SDS011;2938;52.254;12.988;2023-07-09T02:52:33;6.85;;;5.90;;
5823;SDS011;2938;52.254;12.988;2023-07-09T02:54:58;7.43;;;6.65;;
5823;SDS011;2938;52.254;12.988;2023-07-09T02:57:24;14.25;;;8.75;;
5823;SDS011;2938;52.254;12.988;2023-07-09T02:59:49;7.82;;;5.75;;
5823;SDS011;2938;52.254;12.988;2023-07-09T03:02:14;8.13;;;7.07;;
5823;SDS011;2938;52.254;12.988;2023-07-09T03:04:39;8.68;;;7.80;;
5823;SDS011;2938;52.254;12.988;2023-07-09T03:07:05;15.00;;;8.13;;
5823;SDS011;2938;52.254;12.988;2023-07-09T03:09:30;17.83;;;8.18;;
5823;SDS011;2938;52.254;12.988;2023-07-09T03:11:56;8.43;;;7.68;;
5823;SDS011;2938;52.254;12.988;2023-07-09T03:14:21;8.02;;;7.22;;
5823;SDS011;2938;52.254;12.988;2023-07-09T03:16:47;9.63;;;6.95;;
5823;SDS011;2938;52.254;12.988;2023-07-09T03:19:12;9.88;;;7.30;;
5823;SDS011;2938;52.254;12.988;2023-07-09T03:21:38;17.52;;;8.40;;
5823;SDS011;2938;52.254;12.988;2023-07-09T03:24:03;10.90;;;8.18;;
5823;SDS011;2938;52.254;12.988;2023-07-09T03:26:29;12.35;;;7.88;;
5823;SDS011;2938;52.254;12.988;2023-07-09T03:28:54;8.40;;;7.55;;
5823;SDS011;2938;52.254;12.988;2023-07-09T03:31:19;8.95;;;7.63;;
5823;SDS011;2938;52.254;12.988;2023-07-09T03:33:49;8.52;;;7.63;;
5823;SDS011;2938;52.254;12.988;2023-07-09T03:36:15;7.93;;;7.13;;
5823;SDS011;2938;52.254;12.988;2023-07-09T03:38:40;7.85;;;7.15;;
5823;SDS011;2938;52.254;12.988;2023-07-09T03:41:06;9.45;;;8.55;;
5823;SDS011;2938;52.254;12.988;2023-07-09T03:43:31;10.27;;;8.02;;
5823;SDS011;2938;52.254;12.988;2023-07-09T03:45:57;15.32;;;8.98;;
5823;SDS011;2938;52.254;12.988;2023-07-09T03:48:22;10.52;;;8.85;;
5823;SDS011;2938;52.254;12.988;2023-07-09T03:50:47;13.73;;;8.48;;
5823;SDS011;2938;52.254;12.988;2023-07-09T03:53:13;9.45;;;8.55;;
5823;SDS011;2938;52.254;12.988;2023-07-09T03:55:41;9.93;;;8.98;;
5823;SDS011;2938;52.254;12.988;2023-07-09T03:58:07;11.75;;;9.90;;
5823;SDS011;2938;52.254;12.988;2023-07-09T04:00:32;8.95;;;8.10;;
5823;SDS011;2938;52.254;12.988;2023-07-09T04:02:58;11.15;;;9.35;;
5823;SDS011;2938;52.254;12.988;2023-07-09T04:05:24;15.25;;;10.07;;
5823;SDS011;2938;52.254;12.988;2023-07-09T04:07:49;10.48;;;8.07;;
5823;SDS011;2938;52.254;12.988;2023-07-09T04:10:15;14.52;;;8.40;;
5823;SDS011;2938;52.254;12.988;2023-07-09T04:12:40;10.63;;;8.13;;
5823;SDS011;2938;52.254;12.988;2023-07-09T04:15:06;11.82;;;8.52;;
5823;SDS011;2938;52.254;12.988;2023-07-09T04:17:32;8.45;;;7.68;;
5823;SDS011;2938;52.254;12.988;2023-07-09T04:19:57;9.40;;;8.50;;
5823;SDS011;2938;52.254;12.988;2023-07-09T04:22:23;10.60;;;7.53;;
5823;SDS011;2938;52.254;12.988;2023-07-09T04:24:51;12.30;;;7.90;;
5823;SDS011;2938;52.254;12.988;2023-07-09T04:27:19;10.85;;;8.57;;
5823;SDS011;2938;52.254;12.988;2023-07-09T04:29:45;9.60;;;7.68;;
5823;SDS011;2938;52.254;12.988;2023-07-09T04:32:11;8.75;;;7.68;;
5823;SDS011;2938;52.254;12.988;2023-07-09T04:34:38;9.65;;;7.57;;
5823;SDS011;2938;52.254;12.988;2023-07-09T04:37:06;9.23;;;7.97;;
5823;SDS011;2938;52.254;12.988;2023-07-09T04:39:32;9.50;;;8.63;;
5823;SDS011;2938;52.254;12.988;2023-07-09T04:41:58;15.27;;;9.30;;
5823;SDS011;2938;52.254;12.988;2023-07-09T04:44:23;10.43;;;8.00;;
5823;SDS011;2938;52.254;12.988;2023-07-09T04:46:49;10.10;;;9.10;;
5823;SDS011;2938;52.254;12.988;2023-07-09T04:49:15;14.68;;;7.75;;
5823;SDS011;2938;52.254;12.988;2023-07-09T04:51:43;7.50;;;6.80;;
5823;SDS011;2938;52.254;12.988;2023-07-09T04:54:09;11.30;;;7.20;;
5823;SDS011;2938;52.254;12.988;2023-07-09T04:56:34;9.57;;;6.88;;
5823;SDS011;2938;52.254;12.988;2023-07-09T04:59:01;8.10;;;7.30;;
5823;SDS011;2938;52.254;12.988;2023-07-09T05:01:26;10.88;;;7.25;;
5823;SDS011;2938;52.254;12.988;2023-07-09T05:03:52;8.70;;;6.37;;
5823;SDS011;2938;52.254;12.988;2023-07-09T05:06:17;8.35;;;6.53;;
5823;SDS011;2938;52.254;12.988;2023-07-09T05:08:42;8.53;;;6.33;;
5823;SDS011;2938;52.254;12.988;2023-07-09T05:11:08;8.50;;;6.47;;
5823;SDS011;2938;52.254;12.988;2023-07-09T05:13:33;6.40;;;5.80;;
5823;SDS011;2938;52.254;12.988;2023-07-09T05:15:59;15.90;;;5.63;;
5823;SDS011;2938;52.254;12.988;2023-07-09T05:18:24;7.10;;;6.10;;
5823;SDS011;2938;52.254;12.988;2023-07-09T05:20:49;6.45;;;5.85;;
5823;SDS011;2938;52.254;12.988;2023-07-09T05:23:17;6.90;;;5.30;;
5823;SDS011;2938;52.254;12.988;2023-07-09T05:25:42;5.75;;;5.05;;
5823;SDS011;2938;52.254;12.988;2023-07-09T05:28:08;11.60;;;5.93;;
5823;SDS011;2938;52.254;12.988;2023-07-09T05:30:33;5.65;;;5.18;;
5823;SDS011;2938;52.254;12.988;2023-07-09T05:32:58;6.55;;;5.22;;
5823;SDS011;2938;52.254;12.988;2023-07-09T05:35:24;8.50;;;5.05;;
5823;SDS011;2938;52.254;12.988;2023-07-09T05:37:51;5.60;;;4.60;;
5823;SDS011;2938;52.254;12.988;2023-07-09T05:40:17;8.00;;;6.03;;
5823;SDS011;2938;52.254;12.988;2023-07-09T05:42:44;6.03;;;5.43;;
5823;SDS011;2938;52.254;12.988;2023-07-09T05:45:09;9.48;;;6.05;;
5823;SDS011;2938;52.254;12.988;2023-07-09T05:47:35;7.65;;;5.60;;
5823;SDS011;2938;52.254;12.988;2023-07-09T05:50:03;6.95;;;6.25;;
5823;SDS011;2938;52.254;12.988;2023-07-09T05:52:29;12.23;;;6.00;;
5823;SDS011;2938;52.254;12.988;2023-07-09T05:54:54;7.78;;;5.80;;
5823;SDS011;2938;52.254;12.988;2023-07-09T05:57:20;10.07;;;5.80;;
5823;SDS011;2938;52.254;12.988;2023-07-09T05:59:49;12.50;;;6.90;;
5823;SDS011;2938;52.254;12.988;2023-07-09T06:02:24;7.47;;;5.13;;
5823;SDS011;2938;52.254;12.988;2023-07-09T06:04:50;6.35;;;5.50;;
5823;SDS011;2938;52.254;12.988;2023-07-09T06:07:21;7.80;;;5.55;;
5823;SDS011;2938;52.254;12.988;2023-07-09T06:09:46;9.10;;;5.68;;
5823;SDS011;2938;52.254;12.988;2023-07-09T06:15:23;6.63;;;5.93;;
5823;SDS011;2938;52.254;12.988;2023-07-09T06:17:49;8.23;;;6.40;;
5823;SDS011;2938;52.254;12.988;2023-07-09T06:20:23;7.50;;;5.82;;
5823;SDS011;2938;52.254;12.988;2023-07-09T06:26:21;13.63;;;6.72;;
5823;SDS011;2938;52.254;12.988;2023-07-09T06:28:52;8.88;;;6.13;;
5823;SDS011;2938;52.254;12.988;2023-07-09T06:31:29;6.38;;;5.72;;
5823;SDS011;2938;52.254;12.988;2023-07-09T06:34:04;9.43;;;6.68;;
5823;SDS011;2938;52.254;12.988;2023-07-09T06:36:39;8.98;;;6.25;;
5823;SDS011;2938;52.254;12.988;2023-07-09T06:39:08;7.88;;;5.97;;
5823;SDS011;2938;52.254;12.988;2023-07-09T06:41:39;6.47;;;5.82;;
5823;SDS011;2938;52.254;12.988;2023-07-09T06:44:09;12.20;;;6.68;;
5823;SDS011;2938;52.254;12.988;2023-07-09T06:46:34;6.38;;;5.78;;
5823;SDS011;2938;52.254;12.988;2023-07-09T06:49:01;6.10;;;5.55;;
5823;SDS011;2938;52.254;12.988;2023-07-09T06:51:27;8.45;;;5.47;;
5823;SDS011;2938;52.254;12.988;2023-07-09T06:53:58;9.48;;;6.57;;
5823;SDS011;2938;52.254;12.988;2023-07-09T06:56:30;6.30;;;5.68;;
5823;SDS011;2938;52.254;12.988;2023-07-09T06:58:56;9.27;;;5.78;;
5823;SDS011;2938;52.254;12.988;2023-07-09T07:01:24;7.22;;;5.85;;
5823;SDS011;2938;52.254;12.988;2023-07-09T07:03:50;20.45;;;6.35;;
5823;SDS011;2938;52.254;12.988;2023-07-09T07:06:15;7.13;;;6.43;;
5823;SDS011;2938;52.254;12.988;2023-07-09T07:08:41;8.05;;;5.90;;
5823;SDS011;2938;52.254;12.988;2023-07-09T07:11:06;10.45;;;5.78;;
5823;SDS011;2938;52.254;12.988;2023-07-09T07:13:33;7.07;;;6.28;;
5823;SDS011;2938;52.254;12.988;2023-07-09T07:16:00;13.68;;;6.57;;
5823;SDS011;2938;52.254;12.988;2023-07-09T07:18:26;7.03;;;5.90;;
5823;SDS011;2938;52.254;12.988;2023-07-09T07:20:54;6.85;;;6.25;;
5823;SDS011;2938;52.254;12.988;2023-07-09T07:23:19;6.75;;;6.13;;
5823;SDS011;2938;52.254;12.988;2023-07-09T07:25:45;8.85;;;6.57;;
5823;SDS011;2938;52.254;12.988;2023-07-09T07:28:11;6.18;;;5.68;;
5823;SDS011;2938;52.254;12.988;2023-07-09T07:30:39;7.72;;;5.72;;
5823;SDS011;2938;52.254;12.988;2023-07-09T07:33:05;8.40;;;6.20;;
5823;SDS011;2938;52.254;12.988;2023-07-09T07:35:33;9.38;;;7.22;;
5823;SDS011;2938;52.254;12.988;2023-07-09T07:38:01;9.60;;;5.60;;
5823;SDS011;2938;52.254;12.988;2023-07-09T07:40:29;5.78;;;5.28;;
5823;SDS011;2938;52.254;12.988;2023-07-09T07:45:42;10.13;;;6.25;;
5823;SDS011;2938;52.254;12.988;2023-07-09T07:48:15;8.65;;;6.15;;
5823;SDS011;2938;52.254;12.988;2023-07-09T07:50:54;12.07;;;6.53;;
5823;SDS011;2938;52.254;12.988;2023-07-09T07:53:52;9.25;;;6.15;;
5823;SDS011;2938;52.254;12.988;2023-07-09T07:56:51;14.10;;;6.32;;
5823;SDS011;2938;52.254;12.988;2023-07-09T07:59:27;6.60;;;5.72;;
5823;SDS011;2938;52.254;12.988;2023-07-09T08:05:14;8.45;;;4.90;;
5823;SDS011;2938;52.254;12.988;2023-07-09T08:07:49;9.18;;;5.35;;
5823;SDS011;2938;52.254;12.988;2023-07-09T08:17:14;6.93;;;5.80;;
5823;SDS011;2938;52.254;12.988;2023-07-09T08:20:18;6.15;;;5.65;;
5823;SDS011;2938;52.254;12.988;2023-07-09T08:23:04;6.93;;;6.32;;
5823;SDS011;2938;52.254;12.988;2023-07-09T08:25:29;7.90;;;6.07;;
5823;SDS011;2938;52.254;12.988;2023-07-09T08:30:55;5.72;;;5.22;;
5823;SDS011;2938;52.254;12.988;2023-07-09T08:33:30;6.35;;;5.20;;
5823;SDS011;2938;52.254;12.988;2023-07-09T08:36:03;6.72;;;5.72;;
5823;SDS011;2938;52.254;12.988;2023-07-09T08:38:32;7.43;;;5.05;;
5823;SDS011;2938;52.254;12.988;2023-07-09T08:43:36;8.75;;;5.63;;
5823;SDS011;2938;52.254;12.988;2023-07-09T08:49:03;6.60;;;5.97;;
5823;SDS011;2938;52.254;12.988;2023-07-09T08:51:40;6.60;;;6.00;;
5823;SDS011;2938;52.254;12.988;2023-07-09T08:54:09;9.32;;;5.03;;
5823;SDS011;2938;52.254;12.988;2023-07-09T09:00:31;6.78;;;5.97;;
5823;SDS011;2938;52.254;12.988;2023-07-09T09:06:02;6.22;;;4.85;;
5823;SDS011;2938;52.254;12.988;2023-07-09T09:14:41;6.03;;;5.47;;
5823;SDS011;2938;52.254;12.988;2023-07-09T09:17:13;13.95;;;5.93;;
5823;SDS011;2938;52.254;12.988;2023-07-09T09:19:45;9.77;;;4.60;;
5823;SDS011;2938;52.254;12.988;2023-07-09T09:22:15;6.13;;;5.13;;
5823;SDS011;2938;52.254;12.988;2023-07-09T09:24:57;6.68;;;5.20;;
5823;SDS011;2938;52.254;12.988;2023-07-09T09:27:26;13.80;;;6.57;;
5823;SDS011;2938;52.254;12.988;2023-07-09T09:29:52;6.78;;;5.03;;
5823;SDS011;2938;52.254;12.988;2023-07-09T09:34:48;9.10;;;6.32;;
5823;SDS011;2938;52.254;12.988;2023-07-09T09:37:20;7.10;;;5.60;;
5823;SDS011;2938;52.254;12.988;2023-07-09T09:39:50;7.18;;;5.53;;
5823;SDS011;2938;52.254;12.988;2023-07-09T09:42:18;6.93;;;4.57;;
5823;SDS011;2938;52.254;12.988;2023-07-09T09:44:55;8.70;;;6.28;;
5823;SDS011;2938;52.254;12.988;2023-07-09T09:47:20;9.68;;;5.30;;
5823;SDS011;2938;52.254;12.988;2023-07-09T09:49:54;14.60;;;5.85;;
5823;SDS011;2938;52.254;12.988;2023-07-09T09:52:25;10.85;;;5.15;;
5823;SDS011;2938;52.254;12.988;2023-07-09T09:55:10;9.30;;;5.13;;
5823;SDS011;2938;52.254;12.988;2023-07-09T09:57:38;5.55;;;4.53;;
5823;SDS011;2938;52.254;12.988;2023-07-09T10:00:12;6.90;;;5.68;;
5823;SDS011;2938;52.254;12.988;2023-07-09T10:02:42;6.43;;;5.45;;
5823;SDS011;2938;52.254;12.988;2023-07-09T10:05:21;6.00;;;4.75;;
5823;SDS011;2938;52.254;12.988;2023-07-09T10:07:59;6.40;;;4.72;;
5823;SDS011;2938;52.254;12.988;2023-07-09T10:13:15;11.67;;;5.33;;
5823;SDS011;2938;52.254;12.988;2023-07-09T10:31:45;8.63;;;5.25;;
5823;SDS011;2938;52.254;12.988;2023-07-09T10:34:28;6.07;;;5.47;;
5823;SDS011;2938;52.254;12.988;2023-07-09T10:39:51;12.15;;;6.68;;
5823;SDS011;2938;52.254;12.988;2023-07-09T10:42:29;6.57;;;5.72;;
5823;SDS011;2938;52.254;12.988;2023-07-09T10:45:07;6.45;;;5.07;;
5823;SDS011;2938;52.254;12.988;2023-07-09T10:47:36;10.30;;;6.85;;
5823;SDS011;2938;52.254;12.988;2023-07-09T10:50:09;10.40;;;5.57;;
5823;SDS011;2938;52.254;12.988;2023-07-09T10:52:41;7.05;;;6.35;;
5823;SDS011;2938;52.254;12.988;2023-07-09T10:58:53;7.68;;;5.68;;
5823;SDS011;2938;52.254;12.988;2023-07-09T11:01:00;9.05;;;5.95;;
5823;SDS011;2938;52.254;12.988;2023-07-09T11:03:52;10.20;;;6.32;;
5823;SDS011;2938;52.254;12.988;2023-07-09T11:06:38;6.00;;;5.45;;
5823;SDS011;2938;52.254;12.988;2023-07-09T11:09:29;11.40;;;5.60;;
5823;SDS011;2938;52.254;12.988;2023-07-09T11:11:57;6.95;;;5.30;;
5823;SDS011;2938;52.254;12.988;2023-07-09T11:17:31;7.20;;;5.63;;
5823;SDS011;2938;52.254;12.988;2023-07-09T11:20:00;6.22;;;5.60;;
5823;SDS011;2938;52.254;12.988;2023-07-09T11:22:37;11.30;;;5.70;;
5823;SDS011;2938;52.254;12.988;2023-07-09T11:25:16;6.10;;;5.50;;
5823;SDS011;2938;52.254;12.988;2023-07-09T11:28:14;6.93;;;6.07;;
5823;SDS011;2938;52.254;12.988;2023-07-09T11:30:49;17.13;;;5.88;;
5823;SDS011;2938;52.254;12.988;2023-07-09T11:33:17;7.22;;;5.88;;
5823;SDS011;2938;52.254;12.988;2023-07-09T11:36:06;7.82;;;6.13;;
5823;SDS011;2938;52.254;12.988;2023-07-09T11:38:43;5.53;;;4.80;;
5823;SDS011;2938;52.254;12.988;2023-07-09T11:41:23;6.25;;;5.63;;
5823;SDS011;2938;52.254;12.988;2023-07-09T11:43:52;5.28;;;4.78;;
5823;SDS011;2938;52.254;12.988;2023-07-09T11:46:22;9.30;;;5.18;;
5823;SDS011;2938;52.254;12.988;2023-07-09T11:48:51;8.40;;;5.88;;
5823;SDS011;2938;52.254;12.988;2023-07-09T11:51:22;7.47;;;5.72;;
5823;SDS011;2938;52.254;12.988;2023-07-09T11:53:52;6.80;;;6.07;;
5823;SDS011;2938;52.254;12.988;2023-07-09T11:56:23;6.70;;;5.45;;
5823;SDS011;2938;52.254;12.988;2023-07-09T12:01:34;8.50;;;6.40;;
5823;SDS011;2938;52.254;12.988;2023-07-09T12:04:08;7.53;;;5.63;;
5823;SDS011;2938;52.254;12.988;2023-07-09T12:06:38;8.63;;;5.70;;
5823;SDS011;2938;52.254;12.988;2023-07-09T12:09:04;7.60;;;5.00;;
5823;SDS011;2938;52.254;12.988;2023-07-09T12:11:33;6.57;;;5.82;;
5823;SDS011;2938;52.254;12.988;2023-07-09T12:14:08;7.75;;;5.82;;
5823;SDS011;2938;52.254;12.988;2023-07-09T12:16:39;7.55;;;6.82;;
5823;SDS011;2938;52.254;12.988;2023-07-09T12:19:12;6.85;;;5.47;;
5823;SDS011;2938;52.254;12.988;2023-07-09T12:21:39;7.88;;;5.70;;
5823;SDS011;2938;52.254;12.988;2023-07-09T12:27:03;6.78;;;6.07;;
5823;SDS011;2938;52.254;12.988;2023-07-09T12:29:43;7.88;;;5.82;;
5823;SDS011;2938;52.254;12.988;2023-07-09T12:32:13;8.98;;;5.65;;
5823;SDS011;2938;52.254;12.988;2023-07-09T12:34:39;8.57;;;6.88;;
5823;SDS011;2938;52.254;12.988;2023-07-09T12:37:05;7.13;;;6.47;;
5823;SDS011;2938;52.254;12.988;2023-07-09T12:39:31;7.45;;;5.85;;
5823;SDS011;2938;52.254;12.988;2023-07-09T12:42:02;8.60;;;6.68;;
5823;SDS011;2938;52.254;12.988;2023-07-09T12:44:33;6.55;;;5.07;;
5823;SDS011;2938;52.254;12.988;2023-07-09T12:47:02;7.88;;;5.70;;
5823;SDS011;2938;52.254;12.988;2023-07-09T12:49:29;6.25;;;5.18;;
5823;SDS011;2938;52.254;12.988;2023-07-09T12:51:57;7.65;;;5.40;;
5823;SDS011;2938;52.254;12.988;2023-07-09T12:54:23;6.75;;;4.75;;
5823;SDS011;2938;52.254;12.988;2023-07-09T12:56:53;6.70;;;5.47;;
5823;SDS011;2938;52.254;12.988;2023-07-09T12:59:20;10.13;;;6.25;;
5823;SDS011;2938;52.254;12.988;2023-07-09T13:01:47;6.88;;;6.22;;
5823;SDS011;2938;52.254;12.988;2023-07-09T13:04:44;6.03;;;5.43;;
5823;SDS011;2938;52.254;12.988;2023-07-09T13:09:51;6.65;;;5.93;;
5823;SDS011;2938;52.254;12.988;2023-07-09T13:12:17;5.95;;;5.35;;
5823;SDS011;2938;52.254;12.988;2023-07-09T13:14:46;7.10;;;6.40;;
5823;SDS011;2938;52.254;12.988;2023-07-09T13:17:17;7.38;;;5.20;;
5823;SDS011;2938;52.254;12.988;2023-07-09T13:20:19;6.47;;;5.78;;
5823;SDS011;2938;52.254;12.988;2023-07-09T13:23:28;9.15;;;5.75;;
5823;SDS011;2938;52.254;12.988;2023-07-09T13:32:34;6.68;;;6.00;;
5823;SDS011;2938;52.254;12.988;2023-07-09T13:45:28;7.75;;;5.97;;
5823;SDS011;2938;52.254;12.988;2023-07-09T13:47:58;6.10;;;5.50;;
5823;SDS011;2938;52.254;12.988;2023-07-09T13:50:34;7.30;;;5.80;;
5823;SDS011;2938;52.254;12.988;2023-07-09T13:53:17;10.63;;;6.68;;
5823;SDS011;2938;52.254;12.988;2023-07-09T13:55:56;6.25;;;5.60;;
5823;SDS011;2938;52.254;12.988;2023-07-09T13:58:34;8.38;;;6.50;;
5823;SDS011;2938;52.254;12.988;2023-07-09T14:01:01;7.78;;;5.85;;
5823;SDS011;2938;52.254;12.988;2023-07-09T14:06:13;5.35;;;4.85;;
5823;SDS011;2938;52.254;12.988;2023-07-09T14:08:40;6.50;;;5.90;;
5823;SDS011;2938;52.254;12.988;2023-07-09T14:11:26;7.03;;;6.07;;
5823;SDS011;2938;52.254;12.988;2023-07-09T14:13:52;6.20;;;5.60;;
5823;SDS011;2938;52.254;12.988;2023-07-09T14:16:17;9.20;;;6.00;;
5823;SDS011;2938;52.254;12.988;2023-07-09T14:18:44;12.07;;;6.13;;
5823;SDS011;2938;52.254;12.988;2023-07-09T14:21:21;6.50;;;5.85;;
5823;SDS011;2938;52.254;12.988;2023-07-09T14:23:52;9.05;;;7.13;;
5823;SDS011;2938;52.254;12.988;2023-07-09T14:26:18;6.55;;;5.72;;
5823;SDS011;2938;52.254;12.988;2023-07-09T14:28:43;9.68;;;6.82;;
5823;SDS011;2938;52.254;12.988;2023-07-09T14:31:13;6.50;;;5.75;;
5823;SDS011;2938;52.254;12.988;2023-07-09T14:33:44;10.38;;;5.90;;
5823;SDS011;2938;52.254;12.988;2023-07-09T14:36:09;7.57;;;5.82;;
5823;SDS011;2938;52.254;12.988;2023-07-09T14:38:35;14.20;;;6.55;;
5823;SDS011;2938;52.254;12.988;2023-07-09T14:41:00;9.13;;;6.35;;
5823;SDS011;2938;52.254;12.988;2023-07-09T14:45:57;9.60;;;6.50;;
5823;SDS011;2938;52.254;12.988;2023-07-09T14:48:22;9.17;;;6.40;;
5823;SDS011;2938;52.254;12.988;2023-07-09T14:50:48;8.35;;;5.47;;
5823;SDS011;2938;52.254;12.988;2023-07-09T14:53:14;6.32;;;5.72;;
5823;SDS011;2938;52.254;12.988;2023-07-09T14:55:47;7.38;;;5.85;;
5823;SDS011;2938;52.254;12.988;2023-07-09T14:58:13;6.82;;;5.97;;
5823;SDS011;2938;52.254;12.988;2023-07-09T15:00:42;6.22;;;5.32;;
5823;SDS011;2938;52.254;12.988;2023-07-09T15:03:09;11.20;;;6.22;;
5823;SDS011;2938;52.254;12.988;2023-07-09T15:05:35;5.95;;;5.40;;
5823;SDS011;2938;52.254;12.988;2023-07-09T15:08:00;6.22;;;5.60;;
5823;SDS011;2938;52.254;12.988;2023-07-09T15:10:29;14.00;;;6.97;;
5823;SDS011;2938;52.254;12.988;2023-07-09T15:12:55;6.03;;;5.43;;
5823;SDS011;2938;52.254;12.988;2023-07-09T15:15:25;9.77;;;6.22;;
5823;SDS011;2938;52.254;12.988;2023-07-09T15:17:54;9.57;;;5.73;;
5823;SDS011;2938;52.254;12.988;2023-07-09T15:20:23;6.38;;;5.78;;
5823;SDS011;2938;52.254;12.988;2023-07-09T15:22:51;10.13;;;6.50;;
5823;SDS011;2938;52.254;12.988;2023-07-09T15:25:24;7.43;;;5.63;;
5823;SDS011;2938;52.254;12.988;2023-07-09T15:27:51;6.95;;;6.25;;
5823;SDS011;2938;52.254;12.988;2023-07-09T15:30:28;7.43;;;5.53;;
5823;SDS011;2938;52.254;12.988;2023-07-09T15:33:18;6.45;;;5.72;;
5823;SDS011;2938;52.254;12.988;2023-07-09T15:35:54;10.13;;;6.72;;
5823;SDS011;2938;52.254;12.988;2023-07-09T15:38:47;7.20;;;6.47;;
5823;SDS011;2938;52.254;12.988;2023-07-09T15:42:07;10.18;;;6.22;;
5823;SDS011;2938;52.254;12.988;2023-07-09T15:45:02;8.13;;;5.57;;
5823;SDS011;2938;52.254;12.988;2023-07-09T15:47:27;10.07;;;6.25;;
5823;SDS011;2938;52.254;12.988;2023-07-09T15:49:54;9.35;;;6.18;;
5823;SDS011;2938;52.254;12.988;2023-07-09T15:52:19;8.83;;;6.13;;
5823;SDS011;2938;52.254;12.988;2023-07-09T15:54:44;11.02;;;6.38;;
5823;SDS011;2938;52.254;12.988;2023-07-09T15:57:12;7.18;;;6.43;;
5823;SDS011;2938;52.254;12.988;2023-07-09T15:59:38;8.98;;;6.38;;
5823;SDS011;2938;52.254;12.988;2023-07-09T16:02:36;7.43;;;5.88;;
5823;SDS011;2938;52.254;12.988;2023-07-09T16:05:13;7.95;;;6.05;;
5823;SDS011;2938;52.254;12.988;2023-07-09T16:08:25;8.32;;;6.20;;
5823;SDS011;2938;52.254;12.988;2023-07-09T16:11:18;8.32;;;5.80;;
5823;SDS011;2938;52.254;12.988;2023-07-09T16:16:43;7.55;;;5.82;;
5823;SDS011;2938;52.254;12.988;2023-07-09T16:19:18;9.40;;;6.55;;
5823;SDS011;2938;52.254;12.988;2023-07-09T16:21:54;8.93;;;6.00;;
5823;SDS011;2938;52.254;12.988;2023-07-09T16:24:49;6.60;;;5.90;;
5823;SDS011;2938;52.254;12.988;2023-07-09T16:27:17;7.60;;;5.95;;
5823;SDS011;2938;52.254;12.988;2023-07-09T16:29:49;8.50;;;6.15;;
5823;SDS011;2938;52.254;12.988;2023-07-09T16:35:40;6.93;;;6.22;;
5823;SDS011;2938;52.254;12.988;2023-07-09T16:41:25;7.45;;;5.95;;
5823;SDS011;2938;52.254;12.988;2023-07-09T16:44:31;18.98;;;5.93;;
5823;SDS011;2938;52.254;12.988;2023-07-09T16:47:59;8.75;;;5.07;;
5823;SDS011;2938;52.254;12.988;2023-07-09T16:54:18;8.73;;;6.47;;
5823;SDS011;2938;52.254;12.988;2023-07-09T16:57:00;7.10;;;5.95;;
5823;SDS011;2938;52.254;12.988;2023-07-09T17:03:41;6.93;;;6.07;;
5823;SDS011;2938;52.254;12.988;2023-07-09T17:10:30;6.28;;;5.43;;
5823;SDS011;2938;52.254;12.988;2023-07-09T17:16:32;8.60;;;6.32;;
5823;SDS011;2938;52.254;12.988;2023-07-09T17:19:22;10.98;;;6.03;;
5823;SDS011;2938;52.254;12.988;2023-07-09T17:21:50;7.63;;;5.45;;
5823;SDS011;2938;52.254;12.988;2023-07-09T17:28:19;6.53;;;5.82;;
5823;SDS011;2938;52.254;12.988;2023-07-09T17:31:07;13.18;;;6.28;;